Time;durP1;ratioP1;P1;durP2;ratioP2;P2;SDS_P1;SDS_P2;PMS_P1;PMS_P2;Temp;Humidity;BMP_temperature;BMP_pressure;BME280_temperature;BME280_humidity;BME280_pressure;Samples;Min_cycle;Max_cycle;Signal;HPM_P1;HPM_P2
2023/12/09 00:01:19;;;;;;;112.63;34.03;;;7.60;99.90;;;;;;5073470;28;20047;-60
2023/12/09 00:03:45;;;;;;;116.53;34.38;;;6.80;99.90;;;;;;5073226;28;20491;-60
2023/12/09 00:06:11;;;;;;;126.53;34.90;;;6.20;99.90;;;;;;5073421;28;20051;-60
2023/12/09 00:08:37;;;;;;;108.63;31.05;;;7.40;99.90;;;;;;5073342;28;20036;-60
2023/12/09 00:11:02;;;;;;;114.70;33.88;;;7.70;99.90;;;;;;5073190;28;20087;-60
2023/12/09 00:13:28;;;;;;;121.18;31.65;;;7.30;99.90;;;;;;5073117;28;20157;-60
2023/12/09 00:15:54;;;;;;;117.20;34.88;;;6.90;99.90;;;;;;5072957;28;20040;-60
2023/12/09 00:18:19;;;;;;;116.70;34.45;;;6.30;99.90;;;;;;5072742;28;20044;-60
2023/12/09 00:20:45;;;;;;;112.10;33.22;;;7.40;99.90;;;;;;5072707;28;20096;-60
2023/12/09 00:23:11;;;;;;;113.18;35.05;;;7.40;99.90;;;;;;5072763;28;20125;-60
2023/12/09 00:25:36;;;;;;;112.00;35.47;;;6.50;99.90;;;;;;5072853;28;20090;-60
2023/12/09 00:28:02;;;;;;;128.68;35.63;;;6.40;99.90;;;;;;5072618;28;20385;-60
2023/12/09 00:30:28;;;;;;;112.47;33.28;;;7.70;99.90;;;;;;5072485;28;20060;-60
2023/12/09 00:32:54;;;;;;;114.70;35.42;;;7.40;99.90;;;;;;5072650;28;20167;-60
2023/12/09 00:35:20;;;;;;;112.70;33.55;;;6.50;99.90;;;;;;5072469;28;20397;-60
2023/12/09 00:37:45;;;;;;;119.93;35.50;;;7.40;99.90;;;;;;5071209;28;20043;-60
2023/12/09 00:40:12;;;;;;;121.93;34.15;;;7.70;99.90;;;;;;5072371;28;20048;-60
2023/12/09 00:42:38;;;;;;;97.13;31.55;;;6.80;99.90;;;;;;5072431;28;20128;-59
2023/12/09 00:45:07;;;;;;;115.95;34.72;;;7.70;99.90;;;;;;5072348;28;20127;-60
2023/12/09 00:47:32;;;;;;;105.20;31.90;;;7.10;99.90;;;;;;5072555;28;20044;-60
2023/12/09 00:49:58;;;;;;;113.43;31.75;;;6.80;99.90;;;;;;5072564;28;20062;-60
2023/12/09 00:52:23;;;;;;;118.20;34.15;;;7.50;99.90;;;;;;5072246;28;20381;-60
2023/12/09 00:54:49;;;;;;;111.65;34.42;;;6.70;99.90;;;;;;5072546;28;20105;-60
2023/12/09 00:57:15;;;;;;;107.40;32.70;;;7.70;99.90;;;;;;5072406;28;20040;-60
2023/12/09 00:59:40;;;;;;;97.18;35.60;;;6.30;99.90;;;;;;5072426;28;20040;-60
2023/12/09 01:02:06;;;;;;;103.35;33.15;;;6.60;99.90;;;;;;5072410;28;20044;-61
2023/12/09 01:04:32;;;;;;;98.22;32.70;;;7.70;99.90;;;;;;5072137;28;20040;-60
2023/12/09 01:06:57;;;;;;;99.80;30.63;;;6.90;99.90;;;;;;5072285;28;20040;-60
2023/12/09 01:09:23;;;;;;;100.78;33.00;;;6.40;99.90;;;;;;5072388;28;20036;-59
2023/12/09 01:11:49;;;;;;;100.13;32.65;;;7.70;99.90;;;;;;5072143;28;20045;-60
2023/12/09 01:14:15;;;;;;;104.90;31.17;;;6.70;99.90;;;;;;5072043;28;20488;-60
2023/12/09 01:16:40;;;;;;;106.38;33.33;;;7.50;99.90;;;;;;5072336;28;20101;-60
2023/12/09 01:19:06;;;;;;;99.63;30.83;;;7.70;99.90;;;;;;5072262;28;20669;-60
2023/12/09 01:21:32;;;;;;;96.60;31.45;;;6.40;99.90;;;;;;5072252;28;20166;-61
2023/12/09 01:23:58;;;;;;;105.63;33.58;;;7.70;99.90;;;;;;5070992;28;20476;-60
2023/12/09 01:26:23;;;;;;;94.88;32.42;;;7.80;99.90;;;;;;5071973;28;20066;-60
2023/12/09 01:28:49;;;;;;;105.70;33.25;;;7.30;99.90;;;;;;5071968;28;20052;-60
2023/12/09 01:31:15;;;;;;;103.47;32.97;;;6.40;99.90;;;;;;5071689;28;20392;-60
2023/12/09 01:33:41;;;;;;;101.07;31.00;;;7.00;99.90;;;;;;5072160;28;20492;-60
2023/12/09 01:36:07;;;;;;;101.07;33.92;;;7.70;99.90;;;;;;5072177;28;20048;-60
2023/12/09 01:38:32;;;;;;;102.95;33.20;;;7.60;99.90;;;;;;5070596;28;20040;-60
2023/12/09 01:40:58;;;;;;;93.10;32.47;;;6.60;99.90;;;;;;5070501;28;20041;-60
2023/12/09 01:43:24;;;;;;;98.05;33.25;;;7.80;99.90;;;;;;5072051;28;20090;-60
2023/12/09 01:45:55;;;;;;;95.65;30.42;;;6.30;99.90;;;;;;5072081;28;20040;-60
2023/12/09 01:48:22;;;;;;;89.57;30.58;;;7.30;99.90;;;;;;5071906;28;20040;-61
2023/12/09 01:50:49;;;;;;;93.05;32.05;;;7.80;99.90;;;;;;5072052;28;20047;-61
2023/12/09 01:53:15;;;;;;;96.30;28.77;;;7.80;99.90;;;;;;5071835;28;20040;-60
2023/12/09 01:55:41;;;;;;;99.28;31.30;;;7.80;99.90;;;;;;5071754;28;20041;-60
2023/12/09 01:58:08;;;;;;;81.15;31.25;;;6.90;99.90;;;;;;5071560;28;20041;-60
2023/12/09 02:00:34;;;;;;;84.72;30.27;;;7.90;99.90;;;;;;5071646;28;20051;-58
2023/12/09 02:03:00;;;;;;;83.43;29.65;;;7.30;99.90;;;;;;5071556;28;20041;-60
2023/12/09 02:05:26;;;;;;;88.57;30.02;;;7.80;99.90;;;;;;5073742;28;20093;-60
2023/12/09 02:07:52;;;;;;;84.85;31.30;;;7.50;99.90;;;;;;5075633;28;20123;-60
2023/12/09 02:10:18;;;;;;;83.50;30.08;;;7.30;99.90;;;;;;5075433;28;20115;-60
2023/12/09 02:12:59;;;;;;;80.20;27.85;;;6.60;99.90;;;;;;5075260;28;20044;-60
2023/12/09 02:15:39;;;;;;;79.53;27.67;;;7.20;99.90;;;;;;5075452;28;20040;-59
2023/12/09 02:18:06;;;;;;;82.25;27.30;;;6.40;99.90;;;;;;5075386;28;20044;-60
2023/12/09 02:20:33;;;;;;;75.30;28.52;;;7.90;99.90;;;;;;5075346;28;20041;-60
2023/12/09 02:23:19;;;;;;;77.13;27.33;;;7.90;99.90;;;;;;5075078;28;20043;-60
2023/12/09 02:25:48;;;;;;;75.63;26.65;;;7.80;99.90;;;;;;5075097;28;20412;-59
2023/12/09 02:28:19;;;;;;;70.65;25.05;;;8.00;99.90;;;;;;5074911;28;20048;-60
2023/12/09 02:31:02;;;;;;;76.85;28.40;;;7.30;99.90;;;;;;5074800;28;20095;-60
2023/12/09 02:33:29;;;;;;;76.53;28.25;;;7.90;99.90;;;;;;5074818;28;20553;-61
2023/12/09 02:35:55;;;;;;;77.93;25.70;;;7.20;99.90;;;;;;5075081;28;20040;-61
2023/12/09 02:38:23;;;;;;;75.53;26.90;;;6.60;99.90;;;;;;5075060;28;20052;-60
2023/12/09 02:40:49;;;;;;;92.72;28.48;;;6.60;99.90;;;;;;5075175;28;20119;-60
2023/12/09 02:43:16;;;;;;;78.40;26.65;;;7.90;99.90;;;;;;5074988;28;20049;-60
2023/12/09 02:45:45;;;;;;;71.70;26.90;;;7.80;99.90;;;;;;5074685;28;20041;-60
2023/12/09 02:48:11;;;;;;;80.88;28.95;;;7.90;99.90;;;;;;5073261;28;20231;-47
2023/12/09 02:50:36;;;;;;;81.13;29.02;;;7.30;99.90;;;;;;5074707;28;20115;-49
2023/12/09 02:53:03;;;;;;;76.05;28.05;;;7.90;99.90;;;;;;5074700;28;20123;-47
2023/12/09 02:55:28;;;;;;;74.72;28.92;;;7.60;99.90;;;;;;5074488;28;20558;-45
2023/12/09 02:57:54;;;;;;;78.80;28.55;;;7.90;99.90;;;;;;5074447;28;20040;-45
2023/12/09 03:00:20;;;;;;;84.95;28.45;;;7.90;99.90;;;;;;5074348;28;20378;-46
2023/12/09 03:02:45;;;;;;;80.63;31.27;;;7.70;99.90;;;;;;5074493;28;20126;-46
2023/12/09 03:05:11;;;;;;;73.97;28.10;;;6.80;99.90;;;;;;5074456;28;20470;-45
2023/12/09 03:07:37;;;;;;;70.90;29.25;;;7.60;99.90;;;;;;5074612;28;20522;-45
2023/12/09 03:10:03;;;;;;;77.38;27.42;;;6.60;99.90;;;;;;5074466;28;20416;-44
2023/12/09 03:12:28;;;;;;;68.38;26.23;;;6.60;99.90;;;;;;5074266;28;20473;-44
2023/12/09 03:14:54;;;;;;;72.35;27.33;;;6.60;99.90;;;;;;5074409;28;20058;-45
2023/12/09 03:17:20;;;;;;;64.85;26.30;;;6.80;99.90;;;;;;5074057;28;20090;-47
2023/12/09 03:19:46;;;;;;;70.80;24.40;;;7.70;99.90;;;;;;5074231;28;20036;-49
2023/12/09 03:22:11;;;;;;;66.57;24.60;;;7.70;99.90;;;;;;5074268;28;20041;-48
2023/12/09 03:24:37;;;;;;;68.25;25.83;;;6.80;99.90;;;;;;5072880;28;20397;-46
2023/12/09 03:27:03;;;;;;;72.65;27.58;;;6.60;99.90;;;;;;5074239;28;20454;-49
2023/12/09 03:29:28;;;;;;;73.53;25.63;;;7.70;99.90;;;;;;5073910;28;20126;-60
2023/12/09 03:31:54;;;;;;;71.20;27.38;;;6.80;99.90;;;;;;5074129;28;20557;-60
2023/12/09 03:34:20;;;;;;;66.15;25.23;;;7.60;99.90;;;;;;5074071;28;20040;-60
2023/12/09 03:36:46;;;;;;;65.30;24.15;;;6.50;99.90;;;;;;5074006;28;20525;-60
2023/12/09 03:39:12;;;;;;;69.32;24.58;;;7.50;99.90;;;;;;5073700;28;20122;-61
2023/12/09 03:41:37;;;;;;;66.57;24.73;;;7.00;99.90;;;;;;5073925;28;20511;-60
2023/12/09 03:44:04;;;;;;;61.47;24.25;;;7.60;99.90;;;;;;5073910;28;20033;-60
2023/12/09 03:46:30;;;;;;;73.18;25.30;;;6.50;99.90;;;;;;5073644;28;20094;-60
2023/12/09 03:48:56;;;;;;;69.25;24.83;;;6.50;99.90;;;;;;5073381;28;20060;-60
2023/12/09 03:51:21;;;;;;;60.28;24.45;;;6.50;99.90;;;;;;5073734;28;20040;-60
2023/12/09 03:53:47;;;;;;;68.15;24.58;;;7.60;99.90;;;;;;5072041;28;20500;-60
2023/12/09 03:56:16;;;;;;;59.45;22.55;;;7.50;99.90;;;;;;5073214;28;20041;-59
2023/12/09 03:58:42;;;;;;;54.25;23.67;;;7.50;99.90;;;;;;5073535;28;20173;-60
2023/12/09 04:01:07;;;;;;;52.00;23.25;;;6.60;99.90;;;;;;5073469;28;20115;-60
2023/12/09 04:03:33;;;;;;;51.70;24.90;;;6.80;99.90;;;;;;5073304;28;20480;-59
2023/12/09 04:05:59;;;;;;;62.08;24.27;;;7.30;99.90;;;;;;5073312;28;20046;-60
2023/12/09 04:08:26;;;;;;;61.85;24.80;;;6.60;99.90;;;;;;5073309;28;20119;-60
2023/12/09 04:10:51;;;;;;;55.03;25.10;;;7.50;99.90;;;;;;5073025;28;20127;-61
2023/12/09 04:13:17;;;;;;;67.20;24.73;;;6.50;99.90;;;;;;5054916;28;20242;-60
2023/12/09 04:15:43;;;;;;;64.80;27.15;;;6.50;99.90;;;;;;5073149;28;20366;-60
2023/12/09 04:18:08;;;;;;;54.00;23.77;;;6.50;99.90;;;;;;5073157;28;20388;-60
2023/12/09 04:20:34;;;;;;;76.50;25.92;;;7.50;99.90;;;;;;5072901;28;20036;-60
2023/12/09 04:23:00;;;;;;;76.50;25.30;;;7.50;99.90;;;;;;5072945;28;20064;-60
2023/12/09 04:25:25;;;;;;;61.95;23.75;;;7.30;99.90;;;;;;5072665;28;20040;-60
2023/12/09 04:27:51;;;;;;;53.75;24.23;;;7.10;99.90;;;;;;5071994;28;20044;-60
2023/12/09 04:30:17;;;;;;;59.45;23.63;;;7.30;99.90;;;;;;5072626;28;20088;-60
2023/12/09 04:32:43;;;;;;;62.60;24.63;;;6.50;99.90;;;;;;5072710;28;20087;-60
2023/12/09 04:35:09;;;;;;;57.70;23.20;;;7.40;99.90;;;;;;5072565;28;20042;-60
2023/12/09 04:37:35;;;;;;;61.85;23.60;;;7.50;99.90;;;;;;5072589;28;20105;-60
2023/12/09 04:40:04;;;;;;;61.00;25.15;;;7.10;99.90;;;;;;5072573;28;20041;-58
2023/12/09 04:42:29;;;;;;;60.20;21.48;;;6.60;99.90;;;;;;5072426;28;20408;-60
2023/12/09 04:44:55;;;;;;;60.25;22.88;;;7.40;99.90;;;;;;5072662;28;20119;-61
2023/12/09 04:47:21;;;;;;;59.10;22.85;;;6.50;99.90;;;;;;5072676;28;20487;-60
2023/12/09 04:49:47;;;;;;;58.00;22.13;;;7.00;99.90;;;;;;5072527;28;20378;-60
2023/12/09 04:52:12;;;;;;;58.15;20.85;;;6.80;99.90;;;;;;5072225;28;20045;-60
2023/12/09 04:54:38;;;;;;;57.13;21.45;;;6.60;99.90;;;;;;5072289;28;20039;-60
2023/12/09 04:57:04;;;;;;;50.03;21.00;;;7.50;99.90;;;;;;5072420;28;20037;-60
2023/12/09 04:59:30;;;;;;;59.70;22.80;;;7.40;99.90;;;;;;5072537;28;20089;-60
2023/12/09 05:01:56;;;;;;;57.60;21.00;;;7.10;99.90;;;;;;5072496;28;20430;-60
2023/12/09 05:04:21;;;;;;;50.90;21.58;;;7.10;99.90;;;;;;5072354;28;20072;-61
2023/12/09 05:06:47;;;;;;;63.17;22.10;;;6.90;99.90;;;;;;5072517;28;20036;-60
2023/12/09 05:09:13;;;;;;;61.40;22.58;;;7.20;99.90;;;;;;5072229;28;20491;-60
2023/12/09 05:11:39;;;;;;;48.80;20.40;;;6.80;99.90;;;;;;5072118;28;20040;-60
2023/12/09 05:14:05;;;;;;;49.00;20.85;;;7.40;99.90;;;;;;5072001;28;20041;-60
2023/12/09 05:16:32;;;;;;;52.83;19.25;;;6.50;99.90;;;;;;5072299;28;20480;-60
2023/12/09 05:18:57;;;;;;;57.35;23.67;;;6.60;99.90;;;;;;5072392;28;20041;-60
2023/12/09 05:21:23;;;;;;;47.45;19.60;;;6.60;99.90;;;;;;5072159;28;20373;-60
2023/12/09 05:23:49;;;;;;;48.50;17.77;;;7.20;99.90;;;;;;5072322;28;20086;-61
2023/12/09 05:26:22;;;;;;;48.60;19.35;;;7.00;99.90;;;;;;5072136;28;20381;-60
2023/12/09 05:28:48;;;;;;;56.63;20.02;;;6.80;99.90;;;;;;5072166;28;20124;-60
2023/12/09 05:31:14;;;;;;;52.58;20.17;;;7.40;99.90;;;;;;5071694;28;20110;-60
2023/12/09 05:33:42;;;;;;;48.65;19.20;;;7.20;99.90;;;;;;5072092;28;20040;-60
2023/12/09 05:36:08;;;;;;;50.72;20.98;;;6.70;99.90;;;;;;5072125;28;20041;-60
2023/12/09 05:38:34;;;;;;;53.72;19.10;;;7.20;99.90;;;;;;5072063;28;20393;-60
2023/12/09 05:40:59;;;;;;;50.83;19.10;;;7.40;99.90;;;;;;5074911;28;20413;-59
2023/12/09 05:43:25;;;;;;;53.10;18.88;;;7.10;99.90;;;;;;5076248;28;20037;-60
2023/12/09 05:45:51;;;;;;;53.80;18.63;;;7.10;99.90;;;;;;5074565;28;20403;-60
2023/12/09 05:48:17;;;;;;;49.08;17.83;;;6.60;99.90;;;;;;5075916;28;20036;-60
2023/12/09 05:50:43;;;;;;;56.50;20.90;;;7.30;99.90;;;;;;5075725;28;20051;-60
2023/12/09 05:53:09;;;;;;;56.28;20.25;;;6.70;99.90;;;;;;5075922;28;20139;-60
2023/12/09 05:55:35;;;;;;;50.42;18.92;;;7.50;99.90;;;;;;5075559;28;20072;-59
2023/12/09 05:58:02;;;;;;;45.67;17.67;;;7.40;99.90;;;;;;5075781;28;20388;-60
2023/12/09 06:00:28;;;;;;;53.42;20.13;;;7.40;99.90;;;;;;5075631;28;20557;-60
2023/12/09 06:02:54;;;;;;;51.97;19.52;;;7.40;99.90;;;;;;5075661;28;20040;-60
2023/12/09 06:05:20;;;;;;;51.67;19.95;;;7.40;99.90;;;;;;5075580;28;20043;-60
2023/12/09 06:07:45;;;;;;;45.30;16.75;;;6.70;99.90;;;;;;5075476;28;20048;-60
2023/12/09 06:10:11;;;;;;;47.67;16.95;;;6.70;99.90;;;;;;5075324;28;20447;-60
2023/12/09 06:12:37;;;;;;;49.70;18.70;;;7.30;99.90;;;;;;5075436;28;20045;-60
2023/12/09 06:15:04;;;;;;;54.78;17.63;;;7.40;99.90;;;;;;5073993;28;20119;-60
2023/12/09 06:17:29;;;;;;;45.13;16.02;;;6.60;99.90;;;;;;5075322;28;20040;-60
2023/12/09 06:19:55;;;;;;;40.97;16.75;;;6.70;99.90;;;;;;5075152;28;20446;-60
2023/12/09 06:22:21;;;;;;;48.00;16.42;;;7.30;99.90;;;;;;5075412;28;20439;-61
2023/12/09 06:24:46;;;;;;;43.67;16.02;;;6.70;99.90;;;;;;5075359;28;20036;-59
2023/12/09 06:27:12;;;;;;;41.20;15.85;;;7.30;99.90;;;;;;5075335;28;20039;-59
2023/12/09 06:29:38;;;;;;;43.38;15.82;;;7.00;99.90;;;;;;5074780;28;20048;-60
2023/12/09 06:32:05;;;;;;;48.22;17.00;;;7.20;99.90;;;;;;5075252;28;20450;-60
2023/12/09 06:34:30;;;;;;;39.83;15.65;;;6.60;99.90;;;;;;5075273;28;20075;-60
2023/12/09 06:36:56;;;;;;;41.33;16.27;;;6.60;99.90;;;;;;5074889;28;20036;-61
2023/12/09 06:39:22;;;;;;;42.80;16.85;;;6.80;99.90;;;;;;5075072;28;20029;-60
2023/12/09 06:41:48;;;;;;;41.58;16.88;;;7.00;99.90;;;;;;5075094;28;20090;-60
2023/12/09 06:44:14;;;;;;;40.92;15.20;;;7.20;99.90;;;;;;5075103;28;20045;-61
2023/12/09 06:46:40;;;;;;;41.65;16.10;;;6.60;99.90;;;;;;5074568;28;20097;-60
2023/12/09 06:49:06;;;;;;;41.22;15.75;;;6.60;99.90;;;;;;5074828;28;20115;-60
2023/12/09 06:51:32;;;;;;;42.50;14.60;;;7.30;99.90;;;;;;5074306;28;20111;-60
2023/12/09 06:54:00;;;;;;;42.20;15.77;;;6.70;99.90;;;;;;5074417;28;20557;-61
2023/12/09 06:56:26;;;;;;;37.95;14.05;;;6.90;99.90;;;;;;5074755;28;20107;-60
2023/12/09 06:58:52;;;;;;;44.70;16.55;;;6.60;99.90;;;;;;5074727;28;20076;-60
2023/12/09 07:01:25;;;;;;;40.35;16.77;;;7.20;99.90;;;;;;5074550;28;20048;-60
2023/12/09 07:03:51;;;;;;;50.58;15.55;;;6.60;99.90;;;;;;5074397;28;20044;-60
2023/12/09 07:06:24;;;;;;;39.67;14.80;;;6.80;99.90;;;;;;5074672;28;20654;-60
2023/12/09 07:08:50;;;;;;;45.42;14.23;;;6.70;99.90;;;;;;5074409;28;20056;-60
2023/12/09 07:11:17;;;;;;;44.72;15.63;;;6.60;99.90;;;;;;5074227;28;20476;-60
2023/12/09 07:13:43;;;;;;;44.15;13.65;;;7.20;99.90;;;;;;5074113;28;20080;-60
2023/12/09 07:16:10;;;;;;;34.35;13.43;;;7.00;99.90;;;;;;5074415;28;20072;-60
2023/12/09 07:18:40;;;;;;;37.08;13.43;;;7.10;99.90;;;;;;5074651;28;20045;-60
2023/12/09 07:21:06;;;;;;;35.70;12.98;;;7.10;99.90;;;;;;5074234;28;20044;-60
2023/12/09 07:23:31;;;;;;;39.25;14.55;;;6.80;99.90;;;;;;5073918;28;20123;-60
2023/12/09 07:25:57;;;;;;;30.98;13.43;;;6.80;99.90;;;;;;5074256;28;20123;-49
2023/12/09 07:28:23;;;;;;;37.88;14.77;;;7.10;99.90;;;;;;5073814;28;20045;-48
2023/12/09 07:30:49;;;;;;;34.83;13.48;;;6.50;99.90;;;;;;5073724;28;20114;-49
2023/12/09 07:33:14;;;;;;;27.00;12.23;;;6.90;99.90;;;;;;5072572;28;20047;-45
2023/12/09 07:35:40;;;;;;;39.13;12.82;;;7.00;99.90;;;;;;5073626;28;20044;-49
2023/12/09 07:38:06;;;;;;;33.10;12.73;;;6.50;99.90;;;;;;5073767;28;20054;-60
2023/12/09 07:40:32;;;;;;;34.55;13.48;;;7.00;99.90;;;;;;5073729;28;20093;-46
2023/12/09 07:42:58;;;;;;;34.78;13.13;;;6.90;99.90;;;;;;5073465;28;20054;-47
2023/12/09 07:45:23;;;;;;;36.20;12.88;;;6.50;99.90;;;;;;5073291;28;20072;-49
2023/12/09 07:47:49;;;;;;;36.85;13.82;;;6.50;99.90;;;;;;5072294;28;20037;-46
2023/12/09 07:50:14;;;;;;;35.88;12.38;;;6.80;99.90;;;;;;5073355;28;20546;-47
2023/12/09 07:52:40;;;;;;;38.20;13.43;;;6.70;99.90;;;;;;5073434;28;20041;-45
2023/12/09 07:55:07;;;;;;;28.17;9.60;;;6.50;99.90;;;;;;5072025;28;20481;-45
2023/12/09 07:57:34;;;;;;;31.80;10.77;;;6.70;99.90;;;;;;5072379;28;20507;-45
2023/12/09 08:00:00;;;;;;;34.58;11.15;;;6.60;99.90;;;;;;5073433;28;20036;-60
2023/12/09 08:02:26;;;;;;;35.30;11.15;;;6.80;99.90;;;;;;5072309;28;20117;-60
2023/12/09 08:04:51;;;;;;;29.42;10.48;;;6.50;99.90;;;;;;5073040;28;20477;-60
2023/12/09 08:07:17;;;;;;;25.40;9.55;;;6.90;99.90;;;;;;5073282;28;20396;-60
2023/12/09 08:09:42;;;;;;;34.55;9.40;;;6.70;99.90;;;;;;5073290;28;20472;-60
2023/12/09 08:12:08;;;;;;;30.63;10.38;;;6.50;99.90;;;;;;5072961;28;20041;-60
2023/12/09 08:14:34;;;;;;;31.38;10.77;;;6.70;99.90;;;;;;5072999;28;20060;-60
2023/12/09 08:17:00;;;;;;;27.60;9.02;;;6.80;99.90;;;;;;5073187;28;20502;-45
2023/12/09 08:19:25;;;;;;;35.20;10.70;;;6.50;99.90;;;;;;5072907;28;20047;-44
2023/12/09 08:21:51;;;;;;;27.77;9.85;;;6.70;99.90;;;;;;5071560;28;20043;-45
2023/12/09 08:24:17;;;;;;;35.67;10.63;;;6.70;99.90;;;;;;5073131;28;20115;-45
2023/12/09 08:26:43;;;;;;;27.05;9.52;;;6.90;99.90;;;;;;5072655;28;20036;-46
2023/12/09 08:29:11;;;;;;;32.28;10.68;;;6.80;99.90;;;;;;5072467;28;20028;-45
2023/12/09 08:31:37;;;;;;;23.80;9.00;;;6.70;99.90;;;;;;5072549;28;20064;-46
2023/12/09 08:34:04;;;;;;;28.13;10.88;;;6.70;99.90;;;;;;5072337;28;20040;-47
2023/12/09 08:36:30;;;;;;;29.75;9.63;;;6.90;99.90;;;;;;5072407;28;20044;-46
2023/12/09 08:38:56;;;;;;;28.98;10.20;;;6.90;99.90;;;;;;5071467;28;20411;-46
2023/12/09 08:41:21;;;;;;;28.02;9.93;;;6.60;99.90;;;;;;5072492;28;20041;-47
2023/12/09 08:43:51;;;;;;;30.50;10.45;;;6.60;99.90;;;;;;5072604;28;20128;-45
2023/12/09 08:46:16;;;;;;;26.23;10.38;;;6.70;99.90;;;;;;5072245;28;20111;-45
2023/12/09 08:48:42;;;;;;;29.20;10.13;;;6.60;99.90;;;;;;5072393;28;20476;-60
2023/12/09 08:51:08;;;;;;;28.98;9.77;;;6.60;99.90;;;;;;5072511;28;20083;-59
2023/12/09 08:53:33;;;;;;;34.70;10.48;;;6.60;99.90;;;;;;5072206;28;20076;-60
2023/12/09 08:55:59;;;;;;;31.63;11.27;;;6.60;99.90;;;;;;5072341;28;20074;-45
2023/12/09 08:58:25;;;;;;;36.92;10.45;;;6.90;99.90;;;;;;5072724;28;20190;-47
2023/12/09 09:00:50;;;;;;;33.15;10.63;;;6.60;99.90;;;;;;5072091;28;20052;-60
2023/12/09 09:03:16;;;;;;;28.52;10.55;;;6.80;99.90;;;;;;5072322;28;20115;-59
2023/12/09 09:05:42;;;;;;;23.73;8.63;;;6.60;99.90;;;;;;5072121;28;20643;-60
2023/12/09 09:08:08;;;;;;;26.92;9.65;;;6.90;99.90;;;;;;5070838;28;20125;-59
2023/12/09 09:10:33;;;;;;;26.10;8.77;;;6.90;99.90;;;;;;5072209;28;20453;-61
2023/12/09 09:12:59;;;;;;;20.17;8.18;;;6.60;99.90;;;;;;5071996;28;20040;-60
2023/12/09 09:15:25;;;;;;;28.45;8.82;;;6.60;99.90;;;;;;5071931;28;20051;-60
2023/12/09 09:17:51;;;;;;;28.27;8.95;;;6.90;99.90;;;;;;5072020;28;20115;-61
2023/12/09 09:20:16;;;;;;;23.25;8.27;;;6.70;99.90;;;;;;5072145;28;20037;-60
2023/12/09 09:22:42;;;;;;;23.55;9.40;;;6.70;99.90;;;;;;5071945;28;20500;-60
2023/12/09 09:25:09;;;;;;;19.60;7.20;;;6.80;99.90;;;;;;5072299;28;20080;-60
2023/12/09 09:27:34;;;;;;;23.65;7.65;;;6.90;99.90;;;;;;5070841;28;20047;-60
2023/12/09 09:30:00;;;;;;;24.92;7.85;;;6.90;99.90;;;;;;5071724;28;20048;-60
2023/12/09 09:32:27;;;;;;;23.58;7.32;;;7.00;99.90;;;;;;5072121;28;20049;-60
2023/12/09 09:34:53;;;;;;;28.65;9.00;;;6.80;99.90;;;;;;5072103;28;20037;-61
2023/12/09 09:37:18;;;;;;;23.27;8.40;;;6.80;99.90;;;;;;5072119;28;20037;-60
2023/12/09 09:39:44;;;;;;;23.45;7.68;;;7.10;99.90;;;;;;5071941;28;20068;-60
2023/12/09 09:42:25;;;;;;;24.45;8.85;;;7.00;99.90;;;;;;5072167;28;20032;-60
2023/12/09 09:45:00;;;;;;;23.58;7.72;;;6.90;99.90;;;;;;5070451;28;20056;-60
2023/12/09 09:47:28;;;;;;;28.50;8.57;;;6.80;99.90;;;;;;5071881;28;20045;-60
2023/12/09 09:49:55;;;;;;;22.48;7.35;;;7.10;99.90;;;;;;5071617;28;20086;-60
2023/12/09 09:52:22;;;;;;;27.65;8.43;;;6.90;99.90;;;;;;5070362;28;20052;-60
2023/12/09 09:54:49;;;;;;;20.02;7.93;;;6.90;99.90;;;;;;5071769;28;20093;-61
2023/12/09 09:57:16;;;;;;;25.60;7.55;;;7.00;99.90;;;;;;5071852;28;20071;-60
2023/12/09 09:59:41;;;;;;;23.17;6.75;;;7.10;99.90;;;;;;5072181;28;20037;-60
2023/12/09 10:02:10;;;;;;;22.00;6.65;;;7.00;99.90;;;;;;5072152;28;20089;-60
2023/12/09 10:04:36;;;;;;;16.23;6.20;;;6.90;99.90;;;;;;5072251;28;20037;-60
2023/12/09 10:07:04;;;;;;;21.77;7.03;;;7.10;99.90;;;;;;5071889;28;20068;-46
2023/12/09 10:09:29;;;;;;;22.77;7.50;;;7.00;99.90;;;;;;5071962;28;20377;-46
2023/12/09 10:11:55;;;;;;;16.52;5.82;;;7.10;99.90;;;;;;5072055;28;20036;-45
2023/12/09 10:14:23;;;;;;;22.13;6.70;;;6.90;99.90;;;;;;5071919;28;20128;-46
2023/12/09 10:16:49;;;;;;;18.20;5.38;;;7.10;99.90;;;;;;5070523;28;20485;-45
2023/12/09 10:19:16;;;;;;;15.35;4.57;;;7.10;99.90;;;;;;5071657;28;20097;-46
2023/12/09 10:21:42;;;;;;;17.35;4.90;;;6.90;99.90;;;;;;5070123;28;20044;-45
2023/12/09 10:24:08;;;;;;;11.43;4.07;;;7.10;99.90;;;;;;5070237;28;20052;-44
2023/12/09 10:26:33;;;;;;;13.45;4.70;;;6.90;99.90;;;;;;5073532;28;20052;-44
2023/12/09 10:29:00;;;;;;;18.73;5.22;;;7.00;99.90;;;;;;5075232;28;20075;-47
2023/12/09 10:31:27;;;;;;;15.68;4.93;;;7.10;99.90;;;;;;5073220;28;20061;-49
2023/12/09 10:33:53;;;;;;;15.65;5.28;;;7.10;99.90;;;;;;5073829;28;20076;-48
2023/12/09 10:36:19;;;;;;;15.73;4.88;;;7.10;99.90;;;;;;5074859;28;20083;-46
2023/12/09 10:38:44;;;;;;;23.17;5.10;;;7.10;99.90;;;;;;5074794;28;20064;-60
2023/12/09 10:41:16;;;;;;;19.20;4.20;;;7.10;99.90;;;;;;5074848;28;20448;-61
2023/12/09 10:43:41;;;;;;;18.02;4.55;;;7.20;99.90;;;;;;5074804;28;20059;-61
2023/12/09 10:46:08;;;;;;;14.65;4.90;;;7.20;99.90;;;;;;5074725;28;20044;-60
2023/12/09 10:48:34;;;;;;;18.00;4.28;;;7.30;99.90;;;;;;5073650;28;20041;-60
2023/12/09 10:51:01;;;;;;;14.55;4.93;;;7.20;99.90;;;;;;5073438;28;20094;-60
2023/12/09 10:53:27;;;;;;;13.55;4.22;;;7.30;99.90;;;;;;5074412;28;20056;-60
2023/12/09 10:55:53;;;;;;;19.30;4.90;;;7.30;99.90;;;;;;5074770;28;20041;-47
2023/12/09 10:58:20;;;;;;;14.32;5.10;;;7.40;99.90;;;;;;5074543;28;20036;-45
2023/12/09 11:00:47;;;;;;;16.88;4.35;;;7.40;99.90;;;;;;5074589;28;20062;-48
2023/12/09 11:03:13;;;;;;;17.50;3.90;;;7.20;99.90;;;;;;5074615;28;20415;-46
2023/12/09 11:05:45;;;;;;;12.85;3.85;;;7.40;99.90;;;;;;5074338;28;20044;-46
2023/12/09 11:08:12;;;;;;;10.75;3.28;;;7.30;99.90;;;;;;5074227;28;20115;-60
2023/12/09 11:10:38;;;;;;;13.70;3.53;;;7.30;99.90;;;;;;5074560;28;20045;-60
2023/12/09 11:13:03;;;;;;;12.65;3.00;;;7.40;99.90;;;;;;5074226;28;20048;-60
2023/12/09 11:15:31;;;;;;;11.10;3.00;;;7.50;99.90;;;;;;5074334;28;20043;-60
2023/12/09 11:18:07;;;;;;;14.75;4.05;;;7.40;99.90;;;;;;5074003;28;20115;-60
2023/12/09 11:20:33;;;;;;;9.35;3.28;;;7.40;99.90;;;;;;5073905;28;20055;-60
2023/12/09 11:23:00;;;;;;;11.35;2.95;;;7.40;99.90;;;;;;5056068;28;20051;-59
2023/12/09 11:25:26;;;;;;;12.18;3.42;;;7.50;99.90;;;;;;5072619;28;20045;-60
2023/12/09 11:27:52;;;;;;;8.75;2.80;;;7.50;99.90;;;;;;5073908;28;20105;-60
2023/12/09 11:30:30;;;;;;;15.32;2.50;;;7.60;99.90;;;;;;5073873;28;20412;-60
2023/12/09 11:32:56;;;;;;;10.25;2.78;;;7.50;99.90;;;;;;5073505;28;20099;-59
2023/12/09 11:35:23;;;;;;;10.95;2.72;;;7.50;99.90;;;;;;5072685;28;20434;-61
2023/12/09 11:37:51;;;;;;;10.20;2.67;;;7.40;99.90;;;;;;5073752;28;20055;-60
2023/12/09 11:40:17;;;;;;;16.13;2.47;;;7.40;99.90;;;;;;5073707;28;20037;-61
2023/12/09 11:42:44;;;;;;;8.85;2.72;;;7.40;99.90;;;;;;5073738;28;20401;-60
2023/12/09 11:45:10;;;;;;;12.57;2.70;;;7.50;99.90;;;;;;5073555;28;20048;-60
2023/12/09 11:47:37;;;;;;;11.00;2.42;;;7.40;99.90;;;;;;5073496;28;20047;-61
2023/12/09 11:50:04;;;;;;;9.45;2.58;;;7.50;99.90;;;;;;5073583;28;20149;-60
2023/12/09 11:52:30;;;;;;;8.88;2.45;;;7.50;99.90;;;;;;5073150;28;20094;-60
2023/12/09 11:55:04;;;;;;;9.00;2.40;;;7.40;99.90;;;;;;5073572;28;20032;-60
2023/12/09 11:57:32;;;;;;;11.00;2.35;;;7.50;99.90;;;;;;5073424;28;20492;-60
2023/12/09 11:59:58;;;;;;;12.70;2.60;;;7.50;99.90;;;;;;5073537;28;20377;-59
2023/12/09 12:02:23;;;;;;;13.75;2.67;;;7.40;99.90;;;;;;5073455;28;20055;-60
2023/12/09 12:04:49;;;;;;;10.50;2.45;;;7.50;99.90;;;;;;5073349;28;20044;-60
2023/12/09 12:07:15;;;;;;;11.40;2.88;;;7.40;99.90;;;;;;5073163;28;20404;-61
2023/12/09 12:09:41;;;;;;;10.38;2.60;;;7.40;99.90;;;;;;5073479;28;20388;-46
2023/12/09 12:12:08;;;;;;;9.68;2.20;;;7.50;99.90;;;;;;5073059;28;20071;-50
2023/12/09 12:14:35;;;;;;;11.50;2.25;;;7.50;99.90;;;;;;5072992;28;20079;-47
2023/12/09 12:17:01;;;;;;;9.10;2.38;;;7.40;99.90;;;;;;5073276;28;20037;-49
2023/12/09 12:19:28;;;;;;;9.98;2.03;;;7.50;99.90;;;;;;5073055;28;20028;-47
2023/12/09 12:21:54;;;;;;;14.13;2.53;;;7.50;99.90;;;;;;5073177;28;20039;-45
2023/12/09 12:24:20;;;;;;;7.07;1.85;;;7.40;99.90;;;;;;5073162;28;20447;-47
2023/12/09 12:26:47;;;;;;;10.77;2.67;;;7.40;99.90;;;;;;5072958;28;20068;-45
2023/12/09 12:29:20;;;;;;;10.93;3.53;;;7.40;99.90;;;;;;5072645;28;20044;-60
2023/12/09 12:31:50;;;;;;;8.95;2.65;;;7.50;99.90;;;;;;5071294;28;20089;-60
2023/12/09 12:34:17;;;;;;;11.82;3.10;;;7.40;99.90;;;;;;5071529;28;20048;-60